sensor_id;sensor_type;location;lat;lon;timestamp;P1;durP1;ratioP1;P2;durP2;ratioP2
13349;SDS011;6744;53.190;6.576;2022-08-25T00:01:42;4.80;;;4.40;;
13349;SDS011;6744;53.190;6.576;2022-08-25T00:04:16;5.20;;;4.80;;
13349;SDS011;6744;53.190;6.576;2022-08-25T00:06:43;4.83;;;4.43;;
13349;SDS011;6744;53.190;6.576;2022-08-25T00:09:09;5.00;;;4.50;;
13349;SDS011;6744;53.190;6.576;2022-08-25T00:11:37;4.80;;;4.37;;
13349;SDS011;6744;53.190;6.576;2022-08-25T00:14:05;4.40;;;4.03;;
13349;SDS011;6744;53.190;6.576;2022-08-25T00:16:33;4.80;;;4.43;;
13349;SDS011;6744;53.190;6.576;2022-08-25T00:19:00;5.30;;;4.30;;
13349;SDS011;6744;53.190;6.576;2022-08-25T00:21:29;6.47;;;5.00;;
13349;SDS011;6744;53.190;6.576;2022-08-25T00:23:55;5.27;;;4.77;;
13349;SDS011;6744;53.190;6.576;2022-08-25T00:26:21;5.90;;;4.47;;
13349;SDS011;6744;53.190;6.576;2022-08-25T00:28:47;5.73;;;4.10;;
13349;SDS011;6744;53.190;6.576;2022-08-25T00:31:14;4.63;;;4.23;;
13349;SDS011;6744;53.190;6.576;2022-08-25T00:33:42;5.43;;;4.43;;
13349;SDS011;6744;53.190;6.576;2022-08-25T00:36:08;3.90;;;3.60;;
13349;SDS011;6744;53.190;6.576;2022-08-25T00:38:37;4.93;;;3.97;;
13349;SDS011;6744;53.190;6.576;2022-08-25T00:41:03;6.57;;;4.23;;
13349;SDS011;6744;53.190;6.576;2022-08-25T00:43:33;4.10;;;3.70;;
13349;SDS011;6744;53.190;6.576;2022-08-25T00:45:58;3.90;;;3.57;;
13349;SDS011;6744;53.190;6.576;2022-08-25T00:48:24;3.90;;;3.60;;
13349;SDS011;6744;53.190;6.576;2022-08-25T00:50:49;5.40;;;3.40;;
13349;SDS011;6744;53.190;6.576;2022-08-25T00:53:14;4.13;;;3.50;;
13349;SDS011;6744;53.190;6.576;2022-08-25T00:55:40;4.70;;;3.10;;
13349;SDS011;6744;53.190;6.576;2022-08-25T00:58:13;3.93;;;3.30;;
13349;SDS011;6744;53.190;6.576;2022-08-25T01:00:44;4.43;;;3.80;;
13349;SDS011;6744;53.190;6.576;2022-08-25T01:03:12;4.63;;;3.80;;
13349;SDS011;6744;53.190;6.576;2022-08-25T01:05:37;4.70;;;3.53;;
13349;SDS011;6744;53.190;6.576;2022-08-25T01:08:04;4.37;;;3.57;;
13349;SDS011;6744;53.190;6.576;2022-08-25T01:10:32;5.87;;;3.60;;
13349;SDS011;6744;53.190;6.576;2022-08-25T01:13:10;5.00;;;3.30;;
13349;SDS011;6744;53.190;6.576;2022-08-25T01:15:38;4.90;;;3.60;;
13349;SDS011;6744;53.190;6.576;2022-08-25T01:18:04;4.60;;;3.47;;
13349;SDS011;6744;53.190;6.576;2022-08-25T01:20:29;4.80;;;3.50;;
13349;SDS011;6744;53.190;6.576;2022-08-25T01:22:57;4.40;;;3.27;;
13349;SDS011;6744;53.190;6.576;2022-08-25T01:25:29;4.50;;;3.50;;
13349;SDS011;6744;53.190;6.576;2022-08-25T01:28:09;4.20;;;3.43;;
13349;SDS011;6744;53.190;6.576;2022-08-25T01:30:35;4.20;;;3.40;;
13349;SDS011;6744;53.190;6.576;2022-08-25T01:33:02;4.80;;;3.67;;
13349;SDS011;6744;53.190;6.576;2022-08-25T01:35:28;4.30;;;3.43;;
13349;SDS011;6744;53.190;6.576;2022-08-25T01:37:53;4.77;;;3.30;;
13349;SDS011;6744;53.190;6.576;2022-08-25T01:40:19;4.60;;;3.70;;
13349;SDS011;6744;53.190;6.576;2022-08-25T01:45:55;4.13;;;3.50;;
13349;SDS011;6744;53.190;6.576;2022-08-25T01:48:22;4.87;;;3.43;;
13349;SDS011;6744;53.190;6.576;2022-08-25T01:50:47;3.87;;;3.20;;
13349;SDS011;6744;53.190;6.576;2022-08-25T01:53:23;4.20;;;3.27;;
13349;SDS011;6744;53.190;6.576;2022-08-25T01:55:51;4.17;;;3.67;;
13349;SDS011;6744;53.190;6.576;2022-08-25T01:58:20;3.87;;;3.10;;
13349;SDS011;6744;53.190;6.576;2022-08-25T02:00:46;3.30;;;2.93;;
13349;SDS011;6744;53.190;6.576;2022-08-25T02:03:13;3.73;;;3.43;;
13349;SDS011;6744;53.190;6.576;2022-08-25T02:05:39;4.67;;;3.33;;
13349;SDS011;6744;53.190;6.576;2022-08-25T02:08:04;3.70;;;3.37;;
13349;SDS011;6744;53.190;6.576;2022-08-25T02:10:31;3.53;;;3.20;;
13349;SDS011;6744;53.190;6.576;2022-08-25T02:12:57;4.37;;;3.23;;
13349;SDS011;6744;53.190;6.576;2022-08-25T02:15:23;4.77;;;3.30;;
13349;SDS011;6744;53.190;6.576;2022-08-25T02:17:48;4.10;;;3.47;;
13349;SDS011;6744;53.190;6.576;2022-08-25T02:20:13;4.33;;;3.43;;
13349;SDS011;6744;53.190;6.576;2022-08-25T02:22:39;4.10;;;3.27;;
13349;SDS011;6744;53.190;6.576;2022-08-25T02:25:04;5.87;;;3.60;;
13349;SDS011;6744;53.190;6.576;2022-08-25T02:27:30;3.90;;;3.50;;
13349;SDS011;6744;53.190;6.576;2022-08-25T02:29:55;3.60;;;3.30;;
13349;SDS011;6744;53.190;6.576;2022-08-25T02:32:21;3.83;;;3.40;;
13349;SDS011;6744;53.190;6.576;2022-08-25T02:34:47;6.33;;;3.87;;
13349;SDS011;6744;53.190;6.576;2022-08-25T02:37:12;4.77;;;3.50;;
13349;SDS011;6744;53.190;6.576;2022-08-25T02:39:38;4.57;;;3.70;;
13349;SDS011;6744;53.190;6.576;2022-08-25T02:42:03;4.53;;;3.50;;
13349;SDS011;6744;53.190;6.576;2022-08-25T02:44:29;3.73;;;3.30;;
13349;SDS011;6744;53.190;6.576;2022-08-25T02:46:55;4.67;;;3.17;;
13349;SDS011;6744;53.190;6.576;2022-08-25T02:49:21;4.90;;;3.63;;
13349;SDS011;6744;53.190;6.576;2022-08-25T02:51:46;4.23;;;3.50;;
13349;SDS011;6744;53.190;6.576;2022-08-25T02:54:11;4.43;;;3.30;;
13349;SDS011;6744;53.190;6.576;2022-08-25T02:56:37;3.20;;;2.90;;
13349;SDS011;6744;53.190;6.576;2022-08-25T02:59:02;4.03;;;3.20;;
13349;SDS011;6744;53.190;6.576;2022-08-25T03:01:28;4.73;;;3.50;;
13349;SDS011;6744;53.190;6.576;2022-08-25T03:03:55;4.57;;;3.57;;
13349;SDS011;6744;53.190;6.576;2022-08-25T03:06:21;3.57;;;3.27;;
13349;SDS011;6744;53.190;6.576;2022-08-25T03:08:50;3.50;;;3.17;;
13349;SDS011;6744;53.190;6.576;2022-08-25T03:11:16;4.53;;;3.30;;
13349;SDS011;6744;53.190;6.576;2022-08-25T03:13:41;4.77;;;3.60;;
13349;SDS011;6744;53.190;6.576;2022-08-25T03:16:07;4.37;;;3.77;;
13349;SDS011;6744;53.190;6.576;2022-08-25T03:18:33;5.13;;;3.27;;
13349;SDS011;6744;53.190;6.576;2022-08-25T03:20:59;3.90;;;3.50;;
13349;SDS011;6744;53.190;6.576;2022-08-25T03:23:24;4.30;;;3.57;;
13349;SDS011;6744;53.190;6.576;2022-08-25T03:25:49;3.60;;;3.20;;
13349;SDS011;6744;53.190;6.576;2022-08-25T03:28:33;4.47;;;3.40;;
13349;SDS011;6744;53.190;6.576;2022-08-25T03:30:59;4.20;;;3.40;;
13349;SDS011;6744;53.190;6.576;2022-08-25T03:33:28;3.80;;;3.40;;
13349;SDS011;6744;53.190;6.576;2022-08-25T03:35:54;3.90;;;3.30;;
13349;SDS011;6744;53.190;6.576;2022-08-25T03:38:21;5.97;;;3.53;;
13349;SDS011;6744;53.190;6.576;2022-08-25T03:40:47;3.90;;;3.40;;
13349;SDS011;6744;53.190;6.576;2022-08-25T03:43:13;4.80;;;3.30;;
13349;SDS011;6744;53.190;6.576;2022-08-25T03:45:39;3.77;;;3.37;;
13349;SDS011;6744;53.190;6.576;2022-08-25T03:48:05;4.50;;;3.33;;
13349;SDS011;6744;53.190;6.576;2022-08-25T03:50:31;4.83;;;3.37;;
13349;SDS011;6744;53.190;6.576;2022-08-25T03:52:56;4.27;;;3.57;;
13349;SDS011;6744;53.190;6.576;2022-08-25T03:55:23;5.17;;;3.27;;
13349;SDS011;6744;53.190;6.576;2022-08-25T03:57:49;3.50;;;2.90;;
13349;SDS011;6744;53.190;6.576;2022-08-25T04:00:15;4.43;;;3.40;;
13349;SDS011;6744;53.190;6.576;2022-08-25T04:02:41;3.33;;;3.00;;
13349;SDS011;6744;53.190;6.576;2022-08-25T04:05:07;4.10;;;3.53;;
13349;SDS011;6744;53.190;6.576;2022-08-25T04:07:32;5.47;;;3.90;;
13349;SDS011;6744;53.190;6.576;2022-08-25T04:09:58;4.83;;;3.80;;
13349;SDS011;6744;53.190;6.576;2022-08-25T04:12:23;4.47;;;4.07;;
13349;SDS011;6744;53.190;6.576;2022-08-25T04:14:49;3.70;;;3.40;;
13349;SDS011;6744;53.190;6.576;2022-08-25T04:17:15;5.50;;;3.63;;
13349;SDS011;6744;53.190;6.576;2022-08-25T04:19:40;4.00;;;3.60;;
13349;SDS011;6744;53.190;6.576;2022-08-25T04:22:06;4.10;;;3.13;;
13349;SDS011;6744;53.190;6.576;2022-08-25T04:24:31;4.57;;;3.80;;
13349;SDS011;6744;53.190;6.576;2022-08-25T04:26:57;8.57;;;4.03;;
13349;SDS011;6744;53.190;6.576;2022-08-25T04:29:23;4.73;;;3.80;;
13349;SDS011;6744;53.190;6.576;2022-08-25T04:31:49;6.73;;;3.97;;
13349;SDS011;6744;53.190;6.576;2022-08-25T04:34:16;8.10;;;4.60;;
13349;SDS011;6744;53.190;6.576;2022-08-25T04:36:42;7.63;;;4.70;;
13349;SDS011;6744;53.190;6.576;2022-08-25T04:39:07;8.20;;;5.10;;
13349;SDS011;6744;53.190;6.576;2022-08-25T04:41:33;12.23;;;6.47;;
13349;SDS011;6744;53.190;6.576;2022-08-25T04:43:59;10.30;;;6.53;;
13349;SDS011;6744;53.190;6.576;2022-08-25T04:46:26;10.90;;;7.47;;
13349;SDS011;6744;53.190;6.576;2022-08-25T04:48:53;14.70;;;8.10;;
13349;SDS011;6744;53.190;6.576;2022-08-25T04:51:21;13.00;;;8.50;;
13349;SDS011;6744;53.190;6.576;2022-08-25T04:53:48;12.67;;;7.67;;
13349;SDS011;6744;53.190;6.576;2022-08-25T04:56:15;13.23;;;7.57;;
13349;SDS011;6744;53.190;6.576;2022-08-25T04:58:42;13.10;;;8.80;;
13349;SDS011;6744;53.190;6.576;2022-08-25T05:01:11;12.83;;;8.00;;
13349;SDS011;6744;53.190;6.576;2022-08-25T05:03:41;12.37;;;8.23;;
13349;SDS011;6744;53.190;6.576;2022-08-25T05:06:08;14.83;;;9.80;;
13349;SDS011;6744;53.190;6.576;2022-08-25T05:08:34;13.63;;;9.40;;
13349;SDS011;6744;53.190;6.576;2022-08-25T05:11:07;11.87;;;8.63;;
13349;SDS011;6744;53.190;6.576;2022-08-25T05:13:34;10.97;;;8.47;;
13349;SDS011;6744;53.190;6.576;2022-08-25T05:16:00;11.03;;;8.40;;
13349;SDS011;6744;53.190;6.576;2022-08-25T05:18:26;9.27;;;7.60;;
13349;SDS011;6744;53.190;6.576;2022-08-25T05:20:53;10.07;;;7.53;;
13349;SDS011;6744;53.190;6.576;2022-08-25T05:23:19;13.50;;;8.53;;
13349;SDS011;6744;53.190;6.576;2022-08-25T05:25:46;9.80;;;7.43;;
13349;SDS011;6744;53.190;6.576;2022-08-25T05:28:13;14.83;;;8.10;;
13349;SDS011;6744;53.190;6.576;2022-08-25T05:30:39;8.07;;;7.13;;
13349;SDS011;6744;53.190;6.576;2022-08-25T05:33:06;8.00;;;6.57;;
13349;SDS011;6744;53.190;6.576;2022-08-25T05:35:31;8.80;;;7.07;;
13349;SDS011;6744;53.190;6.576;2022-08-25T05:37:57;7.80;;;6.83;;
13349;SDS011;6744;53.190;6.576;2022-08-25T05:40:22;7.10;;;6.13;;
13349;SDS011;6744;53.190;6.576;2022-08-25T05:42:48;6.70;;;6.00;;
13349;SDS011;6744;53.190;6.576;2022-08-25T05:45:14;6.90;;;6.07;;
13349;SDS011;6744;53.190;6.576;2022-08-25T05:47:39;7.13;;;5.97;;
13349;SDS011;6744;53.190;6.576;2022-08-25T05:50:05;8.40;;;5.97;;
13349;SDS011;6744;53.190;6.576;2022-08-25T05:52:31;8.87;;;5.63;;
13349;SDS011;6744;53.190;6.576;2022-08-25T05:54:56;7.43;;;5.97;;
13349;SDS011;6744;53.190;6.576;2022-08-25T05:57:22;6.53;;;5.53;;
13349;SDS011;6744;53.190;6.576;2022-08-25T05:59:47;6.80;;;6.10;;
13349;SDS011;6744;53.190;6.576;2022-08-25T06:02:13;10.40;;;7.07;;
13349;SDS011;6744;53.190;6.576;2022-08-25T06:04:57;7.77;;;6.30;;
13349;SDS011;6744;53.190;6.576;2022-08-25T06:07:22;7.27;;;6.40;;
13349;SDS011;6744;53.190;6.576;2022-08-25T06:09:48;10.17;;;8.20;;
13349;SDS011;6744;53.190;6.576;2022-08-25T06:12:14;11.53;;;7.33;;
13349;SDS011;6744;53.190;6.576;2022-08-25T06:14:41;10.77;;;8.40;;
13349;SDS011;6744;53.190;6.576;2022-08-25T06:17:06;8.53;;;7.67;;
13349;SDS011;6744;53.190;6.576;2022-08-25T06:19:31;8.30;;;7.50;;
13349;SDS011;6744;53.190;6.576;2022-08-25T06:21:57;9.07;;;8.03;;
13349;SDS011;6744;53.190;6.576;2022-08-25T06:24:23;10.83;;;8.80;;
13349;SDS011;6744;53.190;6.576;2022-08-25T06:26:50;9.57;;;7.47;;
13349;SDS011;6744;53.190;6.576;2022-08-25T06:29:15;8.63;;;7.67;;
13349;SDS011;6744;53.190;6.576;2022-08-25T06:31:41;9.57;;;8.67;;
13349;SDS011;6744;53.190;6.576;2022-08-25T06:34:07;10.27;;;8.37;;
13349;SDS011;6744;53.190;6.576;2022-08-25T06:36:33;11.40;;;8.93;;
13349;SDS011;6744;53.190;6.576;2022-08-25T06:38:58;10.27;;;9.27;;
13349;SDS011;6744;53.190;6.576;2022-08-25T06:41:23;10.10;;;9.10;;
13349;SDS011;6744;53.190;6.576;2022-08-25T06:43:49;8.60;;;7.73;;
13349;SDS011;6744;53.190;6.576;2022-08-25T06:46:16;10.27;;;9.13;;
13349;SDS011;6744;53.190;6.576;2022-08-25T06:48:43;10.00;;;8.70;;
13349;SDS011;6744;53.190;6.576;2022-08-25T06:51:10;9.00;;;8.10;;
13349;SDS011;6744;53.190;6.576;2022-08-25T06:53:37;10.03;;;7.97;;
13349;SDS011;6744;53.190;6.576;2022-08-25T06:56:03;9.60;;;8.07;;
13349;SDS011;6744;53.190;6.576;2022-08-25T06:58:29;8.93;;;8.03;;
13349;SDS011;6744;53.190;6.576;2022-08-25T07:00:55;7.63;;;6.87;;
13349;SDS011;6744;53.190;6.576;2022-08-25T07:03:20;7.80;;;7.00;;
13349;SDS011;6744;53.190;6.576;2022-08-25T07:05:53;7.60;;;6.77;;
13349;SDS011;6744;53.190;6.576;2022-08-25T07:08:20;8.67;;;7.63;;
13349;SDS011;6744;53.190;6.576;2022-08-25T07:10:46;7.60;;;6.50;;
13349;SDS011;6744;53.190;6.576;2022-08-25T07:13:12;8.90;;;6.40;;
13349;SDS011;6744;53.190;6.576;2022-08-25T07:15:39;8.10;;;6.90;;
13349;SDS011;6744;53.190;6.576;2022-08-25T07:18:05;9.23;;;6.40;;
13349;SDS011;6744;53.190;6.576;2022-08-25T07:20:34;7.40;;;5.73;;
13349;SDS011;6744;53.190;6.576;2022-08-25T07:23:00;9.83;;;7.03;;
13349;SDS011;6744;53.190;6.576;2022-08-25T07:25:25;8.90;;;6.37;;
13349;SDS011;6744;53.190;6.576;2022-08-25T07:27:51;7.50;;;6.73;;
13349;SDS011;6744;53.190;6.576;2022-08-25T07:30:16;10.60;;;6.73;;
13349;SDS011;6744;53.190;6.576;2022-08-25T07:32:42;8.97;;;7.20;;
13349;SDS011;6744;53.190;6.576;2022-08-25T07:35:07;7.80;;;5.93;;
13349;SDS011;6744;53.190;6.576;2022-08-25T07:37:39;8.00;;;6.27;;
13349;SDS011;6744;53.190;6.576;2022-08-25T07:40:09;7.10;;;6.40;;
13349;SDS011;6744;53.190;6.576;2022-08-25T07:42:36;8.63;;;6.30;;
13349;SDS011;6744;53.190;6.576;2022-08-25T07:45:02;7.13;;;6.13;;
13349;SDS011;6744;53.190;6.576;2022-08-25T07:47:30;6.90;;;6.20;;
13349;SDS011;6744;53.190;6.576;2022-08-25T07:49:56;6.73;;;5.80;;
13349;SDS011;6744;53.190;6.576;2022-08-25T07:52:21;6.03;;;5.43;;
13349;SDS011;6744;53.190;6.576;2022-08-25T07:54:47;6.20;;;5.07;;
13349;SDS011;6744;53.190;6.576;2022-08-25T07:57:12;5.70;;;5.10;;
13349;SDS011;6744;53.190;6.576;2022-08-25T07:59:39;6.00;;;5.10;;
13349;SDS011;6744;53.190;6.576;2022-08-25T08:02:05;6.40;;;5.10;;
13349;SDS011;6744;53.190;6.576;2022-08-25T08:04:32;5.33;;;4.80;;
13349;SDS011;6744;53.190;6.576;2022-08-25T08:07:00;5.57;;;4.37;;
13349;SDS011;6744;53.190;6.576;2022-08-25T08:09:25;5.27;;;4.77;;
13349;SDS011;6744;53.190;6.576;2022-08-25T08:11:51;5.50;;;5.00;;
13349;SDS011;6744;53.190;6.576;2022-08-25T08:14:17;6.20;;;4.90;;
13349;SDS011;6744;53.190;6.576;2022-08-25T08:16:42;6.07;;;5.13;;
13349;SDS011;6744;53.190;6.576;2022-08-25T08:19:07;8.70;;;5.33;;
13349;SDS011;6744;53.190;6.576;2022-08-25T08:21:33;5.30;;;4.80;;
13349;SDS011;6744;53.190;6.576;2022-08-25T08:24:00;5.30;;;4.57;;
13349;SDS011;6744;53.190;6.576;2022-08-25T08:26:26;6.47;;;5.00;;
13349;SDS011;6744;53.190;6.576;2022-08-25T08:28:52;5.27;;;4.40;;
13349;SDS011;6744;53.190;6.576;2022-08-25T08:31:18;4.63;;;4.20;;
13349;SDS011;6744;53.190;6.576;2022-08-25T08:33:45;5.03;;;4.30;;
13349;SDS011;6744;53.190;6.576;2022-08-25T08:36:11;7.53;;;4.87;;
13349;SDS011;6744;53.190;6.576;2022-08-25T08:38:38;5.53;;;4.23;;
13349;SDS011;6744;53.190;6.576;2022-08-25T08:43:58;5.67;;;4.60;;
13349;SDS011;6744;53.190;6.576;2022-08-25T08:46:35;4.27;;;3.87;;
13349;SDS011;6744;53.190;6.576;2022-08-25T08:49:05;4.87;;;4.37;;
13349;SDS011;6744;53.190;6.576;2022-08-25T08:51:38;6.03;;;4.57;;
13349;SDS011;6744;53.190;6.576;2022-08-25T08:54:13;4.73;;;4.23;;
13349;SDS011;6744;53.190;6.576;2022-08-25T08:56:46;6.57;;;4.40;;
13349;SDS011;6744;53.190;6.576;2022-08-25T08:59:15;5.17;;;4.03;;
13349;SDS011;6744;53.190;6.576;2022-08-25T09:04:19;5.43;;;3.70;;
13349;SDS011;6744;53.190;6.576;2022-08-25T09:06:50;5.17;;;3.73;;
13349;SDS011;6744;53.190;6.576;2022-08-25T09:09:19;5.47;;;3.80;;
13349;SDS011;6744;53.190;6.576;2022-08-25T09:11:52;3.80;;;3.50;;
13349;SDS011;6744;53.190;6.576;2022-08-25T09:22:31;4.80;;;3.60;;
13349;SDS011;6744;53.190;6.576;2022-08-25T09:30:19;7.37;;;3.47;;
13349;SDS011;6744;53.190;6.576;2022-08-25T09:32:50;4.33;;;3.63;;
13349;SDS011;6744;53.190;6.576;2022-08-25T09:35:27;4.17;;;3.40;;
13349;SDS011;6744;53.190;6.576;2022-08-25T09:38:01;3.97;;;3.43;;
13349;SDS011;6744;53.190;6.576;2022-08-25T09:40:30;5.47;;;3.57;;
13349;SDS011;6744;53.190;6.576;2022-08-25T09:42:57;3.40;;;3.10;;
13349;SDS011;6744;53.190;6.576;2022-08-25T09:45:32;5.53;;;3.30;;
13349;SDS011;6744;53.190;6.576;2022-08-25T09:47:58;5.77;;;3.50;;
13349;SDS011;6744;53.190;6.576;2022-08-25T09:50:24;4.40;;;3.27;;
13349;SDS011;6744;53.190;6.576;2022-08-25T09:52:54;4.53;;;3.07;;
13349;SDS011;6744;53.190;6.576;2022-08-25T09:55:30;5.83;;;3.50;;
13349;SDS011;6744;53.190;6.576;2022-08-25T09:57:58;5.23;;;3.40;;
13349;SDS011;6744;53.190;6.576;2022-08-25T10:00:25;4.20;;;2.80;;
13349;SDS011;6744;53.190;6.576;2022-08-25T10:05:32;2.93;;;2.60;;
13349;SDS011;6744;53.190;6.576;2022-08-25T10:08:02;5.37;;;2.70;;
13349;SDS011;6744;53.190;6.576;2022-08-25T10:10:37;3.60;;;2.87;;
13349;SDS011;6744;53.190;6.576;2022-08-25T10:13:17;4.50;;;2.80;;
13349;SDS011;6744;53.190;6.576;2022-08-25T10:15:43;6.20;;;3.00;;
13349;SDS011;6744;53.190;6.576;2022-08-25T10:18:17;4.80;;;3.10;;
13349;SDS011;6744;53.190;6.576;2022-08-25T10:23:30;5.73;;;3.00;;
13349;SDS011;6744;53.190;6.576;2022-08-25T10:26:01;4.17;;;2.90;;
13349;SDS011;6744;53.190;6.576;2022-08-25T10:31:22;3.83;;;3.00;;
13349;SDS011;6744;53.190;6.576;2022-08-25T10:36:52;3.57;;;2.83;;
13349;SDS011;6744;53.190;6.576;2022-08-25T10:50:26;4.77;;;2.60;;
13349;SDS011;6744;53.190;6.576;2022-08-25T10:55:41;3.80;;;2.67;;
13349;SDS011;6744;53.190;6.576;2022-08-25T10:58:23;3.77;;;2.73;;
13349;SDS011;6744;53.190;6.576;2022-08-25T11:03:49;6.67;;;3.23;;
13349;SDS011;6744;53.190;6.576;2022-08-25T11:09:24;3.33;;;2.60;;
13349;SDS011;6744;53.190;6.576;2022-08-25T11:11:59;3.73;;;2.50;;
13349;SDS011;6744;53.190;6.576;2022-08-25T11:14:42;3.10;;;2.80;;
13349;SDS011;6744;53.190;6.576;2022-08-25T11:17:19;4.07;;;3.00;;
13349;SDS011;6744;53.190;6.576;2022-08-25T11:19:50;2.90;;;2.70;;
13349;SDS011;6744;53.190;6.576;2022-08-25T11:24:57;4.07;;;3.03;;
13349;SDS011;6744;53.190;6.576;2022-08-25T11:27:30;3.60;;;3.10;;
13349;SDS011;6744;53.190;6.576;2022-08-25T11:30:06;4.70;;;2.80;;
13349;SDS011;6744;53.190;6.576;2022-08-25T11:32:33;5.10;;;2.90;;
13349;SDS011;6744;53.190;6.576;2022-08-25T11:35:01;4.20;;;2.63;;
13349;SDS011;6744;53.190;6.576;2022-08-25T11:37:28;4.33;;;2.97;;
13349;SDS011;6744;53.190;6.576;2022-08-25T11:42:45;2.80;;;2.50;;
13349;SDS011;6744;53.190;6.576;2022-08-25T11:45:38;2.93;;;2.30;;
13349;SDS011;6744;53.190;6.576;2022-08-25T11:53:39;3.00;;;2.60;;
13349;SDS011;6744;53.190;6.576;2022-08-25T11:56:10;3.13;;;2.70;;
13349;SDS011;6744;53.190;6.576;2022-08-25T12:04:31;4.67;;;2.40;;
13349;SDS011;6744;53.190;6.576;2022-08-25T12:14:54;3.97;;;2.50;;
13349;SDS011;6744;53.190;6.576;2022-08-25T12:17:23;3.27;;;2.53;;
13349;SDS011;6744;53.190;6.576;2022-08-25T12:19:52;6.47;;;3.03;;
13349;SDS011;6744;53.190;6.576;2022-08-25T12:27:29;3.00;;;2.70;;
13349;SDS011;6744;53.190;6.576;2022-08-25T12:35:24;2.57;;;2.20;;
13349;SDS011;6744;53.190;6.576;2022-08-25T12:45:45;3.77;;;2.70;;
13349;SDS011;6744;53.190;6.576;2022-08-25T12:51:38;3.83;;;2.57;;
13349;SDS011;6744;53.190;6.576;2022-08-25T12:53:51;2.90;;;2.70;;
13349;SDS011;6744;53.190;6.576;2022-08-25T12:58:53;2.73;;;2.43;;
13349;SDS011;6744;53.190;6.576;2022-08-25T13:12:49;3.60;;;2.60;;
13349;SDS011;6744;53.190;6.576;2022-08-25T13:15:33;2.80;;;2.60;;
13349;SDS011;6744;53.190;6.576;2022-08-25T13:21:22;3.20;;;2.30;;
13349;SDS011;6744;53.190;6.576;2022-08-25T13:23:41;2.80;;;2.60;;
13349;SDS011;6744;53.190;6.576;2022-08-25T13:26:08;3.17;;;2.30;;
13349;SDS011;6744;53.190;6.576;2022-08-25T13:28:37;3.30;;;2.23;;
13349;SDS011;6744;53.190;6.576;2022-08-25T13:31:08;3.57;;;2.60;;
13349;SDS011;6744;53.190;6.576;2022-08-25T13:33:46;5.03;;;2.60;;
13349;SDS011;6744;53.190;6.576;2022-08-25T13:36:15;3.13;;;2.30;;
13349;SDS011;6744;53.190;6.576;2022-08-25T13:39:08;3.97;;;2.50;;
13349;SDS011;6744;53.190;6.576;2022-08-25T13:41:35;2.50;;;2.30;;
13349;SDS011;6744;53.190;6.576;2022-08-25T13:44:01;2.70;;;2.50;;
13349;SDS011;6744;53.190;6.576;2022-08-25T13:46:26;3.13;;;2.67;;
13349;SDS011;6744;53.190;6.576;2022-08-25T13:49:00;2.60;;;2.30;;
13349;SDS011;6744;53.190;6.576;2022-08-25T13:51:28;3.80;;;2.60;;
13349;SDS011;6744;53.190;6.576;2022-08-25T13:53:55;3.00;;;2.70;;
13349;SDS011;6744;53.190;6.576;2022-08-25T13:56:40;4.03;;;2.40;;
13349;SDS011;6744;53.190;6.576;2022-08-25T13:59:17;4.90;;;2.77;;
13349;SDS011;6744;53.190;6.576;2022-08-25T14:01:52;2.57;;;2.20;;
13349;SDS011;6744;53.190;6.576;2022-08-25T14:04:20;2.90;;;2.70;;
13349;SDS011;6744;53.190;6.576;2022-08-25T14:06:46;2.40;;;2.20;;
13349;SDS011;6744;53.190;6.576;2022-08-25T14:09:15;2.50;;;2.23;;
13349;SDS011;6744;53.190;6.576;2022-08-25T14:11:46;4.10;;;2.40;;
13349;SDS011;6744;53.190;6.576;2022-08-25T14:16:48;2.60;;;2.33;;
13349;SDS011;6744;53.190;6.576;2022-08-25T14:19:27;4.07;;;2.50;;
13349;SDS011;6744;53.190;6.576;2022-08-25T14:21:54;2.63;;;2.43;;
13349;SDS011;6744;53.190;6.576;2022-08-25T14:24:23;3.73;;;2.70;;
13349;SDS011;6744;53.190;6.576;2022-08-25T14:26:48;3.93;;;2.70;;
13349;SDS011;6744;53.190;6.576;2022-08-25T14:29:14;2.90;;;2.67;;
13349;SDS011;6744;53.190;6.576;2022-08-25T14:31:41;3.53;;;2.97;;
13349;SDS011;6744;53.190;6.576;2022-08-25T14:34:09;3.13;;;2.93;;
13349;SDS011;6744;53.190;6.576;2022-08-25T14:36:37;4.40;;;3.10;;
13349;SDS011;6744;53.190;6.576;2022-08-25T14:39:03;3.57;;;2.90;;
13349;SDS011;6744;53.190;6.576;2022-08-25T14:41:31;4.53;;;2.97;;
13349;SDS011;6744;53.190;6.576;2022-08-25T14:43:58;4.63;;;2.97;;
13349;SDS011;6744;53.190;6.576;2022-08-25T14:46:28;3.90;;;3.13;;
13349;SDS011;6744;53.190;6.576;2022-08-25T14:48:58;4.07;;;2.70;;
13349;SDS011;6744;53.190;6.576;2022-08-25T14:51:25;6.20;;;3.40;;
13349;SDS011;6744;53.190;6.576;2022-08-25T14:53:53;3.13;;;2.83;;
13349;SDS011;6744;53.190;6.576;2022-08-25T14:56:20;3.70;;;3.10;;
13349;SDS011;6744;53.190;6.576;2022-08-25T14:58:46;3.20;;;2.90;;
13349;SDS011;6744;53.190;6.576;2022-08-25T15:01:12;4.67;;;3.00;;
13349;SDS011;6744;53.190;6.576;2022-08-25T15:03:39;3.23;;;2.83;;
13349;SDS011;6744;53.190;6.576;2022-08-25T15:06:07;5.47;;;3.03;;
13349;SDS011;6744;53.190;6.576;2022-08-25T15:08:35;3.87;;;3.07;;
13349;SDS011;6744;53.190;6.576;2022-08-25T15:11:19;5.07;;;3.03;;
13349;SDS011;6744;53.190;6.576;2022-08-25T15:13:45;4.80;;;3.47;;
13349;SDS011;6744;53.190;6.576;2022-08-25T15:16:16;3.57;;;3.27;;
13349;SDS011;6744;53.190;6.576;2022-08-25T15:18:45;5.20;;;3.57;;
13349;SDS011;6744;53.190;6.576;2022-08-25T15:21:10;3.97;;;2.83;;
13349;SDS011;6744;53.190;6.576;2022-08-25T15:23:36;3.20;;;2.90;;
13349;SDS011;6744;53.190;6.576;2022-08-25T15:26:02;3.77;;;2.97;;
13349;SDS011;6744;53.190;6.576;2022-08-25T15:28:27;3.10;;;2.73;;
13349;SDS011;6744;53.190;6.576;2022-08-25T15:30:52;3.87;;;2.93;;
13349;SDS011;6744;53.190;6.576;2022-08-25T15:33:18;3.80;;;3.00;;
13349;SDS011;6744;53.190;6.576;2022-08-25T15:35:43;4.47;;;2.80;;
13349;SDS011;6744;53.190;6.576;2022-08-25T15:38:09;3.37;;;3.07;;
13349;SDS011;6744;53.190;6.576;2022-08-25T15:40:34;4.03;;;3.03;;
13349;SDS011;6744;53.190;6.576;2022-08-25T15:43:02;3.33;;;2.90;;
13349;SDS011;6744;53.190;6.576;2022-08-25T15:45:28;3.30;;;3.00;;
13349;SDS011;6744;53.190;6.576;2022-08-25T15:47:53;4.50;;;3.00;;
13349;SDS011;6744;53.190;6.576;2022-08-25T15:50:19;3.73;;;3.07;;
13349;SDS011;6744;53.190;6.576;2022-08-25T15:52:45;4.00;;;3.07;;
13349;SDS011;6744;53.190;6.576;2022-08-25T15:55:11;3.47;;;2.60;;
13349;SDS011;6744;53.190;6.576;2022-08-25T15:57:37;3.43;;;3.10;;
13349;SDS011;6744;53.190;6.576;2022-08-25T16:00:04;3.57;;;2.83;;
13349;SDS011;6744;53.190;6.576;2022-08-25T16:02:31;3.83;;;3.27;;
13349;SDS011;6744;53.190;6.576;2022-08-25T16:04:58;3.37;;;2.90;;
13349;SDS011;6744;53.190;6.576;2022-08-25T16:07:25;4.77;;;3.47;;
13349;SDS011;6744;53.190;6.576;2022-08-25T16:09:53;3.30;;;2.93;;
13349;SDS011;6744;53.190;6.576;2022-08-25T16:12:20;3.90;;;2.87;;
13349;SDS011;6744;53.190;6.576;2022-08-25T16:14:45;3.83;;;3.00;;
13349;SDS011;6744;53.190;6.576;2022-08-25T16:17:11;3.67;;;3.00;;
13349;SDS011;6744;53.190;6.576;2022-08-25T16:19:36;4.53;;;3.20;;
13349;SDS011;6744;53.190;6.576;2022-08-25T16:22:02;3.97;;;3.10;;
13349;SDS011;6744;53.190;6.576;2022-08-25T16:24:27;3.30;;;3.00;;
13349;SDS011;6744;53.190;6.576;2022-08-25T16:26:53;4.60;;;3.20;;
13349;SDS011;6744;53.190;6.576;2022-08-25T16:29:18;4.53;;;2.77;;
13349;SDS011;6744;53.190;6.576;2022-08-25T16:31:44;5.20;;;3.17;;
13349;SDS011;6744;53.190;6.576;2022-08-25T16:34:09;3.60;;;3.30;;
13349;SDS011;6744;53.190;6.576;2022-08-25T16:36:35;4.57;;;3.60;;
13349;SDS011;6744;53.190;6.576;2022-08-25T16:39:01;3.30;;;3.00;;
13349;SDS011;6744;53.190;6.576;2022-08-25T16:41:30;3.60;;;2.93;;
13349;SDS011;6744;53.190;6.576;2022-08-25T16:43:59;4.17;;;3.47;;
13349;SDS011;6744;53.190;6.576;2022-08-25T16:46:25;4.33;;;3.20;;
13349;SDS011;6744;53.190;6.576;2022-08-25T16:48:51;3.50;;;3.20;;
13349;SDS011;6744;53.190;6.576;2022-08-25T16:51:17;3.00;;;2.70;;
13349;SDS011;6744;53.190;6.576;2022-08-25T16:53:44;3.67;;;3.37;;
13349;SDS011;6744;53.190;6.576;2022-08-25T16:56:28;3.93;;;2.70;;
13349;SDS011;6744;53.190;6.576;2022-08-25T16:58:54;3.33;;;3.03;;
13349;SDS011;6744;53.190;6.576;2022-08-25T17:01:22;3.30;;;3.10;;
13349;SDS011;6744;53.190;6.576;2022-08-25T17:03:52;4.40;;;3.03;;